Weather History for KEFT - February, 2014

Change the Weather History Date:

Saturday, February 15, 2014

  Actual Average Record
Temperature  
Mean Temperature 10 °F -  
Max Temperature 16 °F 0 °F 53 °F (1999)
Min Temperature 3 °F - -4 °F (2007)
Degree Days  
Heating Degree Days 56    
Moisture  
Dew Point 5 °F    
Average Humidity 78    
Maximum Humidity 100    
Minimum Humidity 63    
Precipitation  
Precipitation 0.00 in - - ()
Sea Level Pressure  
Sea Level Pressure 29.96 in    
Wind  
Wind Speed 8 mph (SSW)    
Max Wind Speed 15 mph    
Max Gust Speed 20 mph    
Visibility 9 miles    
Events Snow    
Averages and records for this station are not official NWS values.
T = Trace of Precipitation, MM = Missing Value Source: NWS Daily Summary

Daily Weather History Graph

Daily Weather History Graph

Search for Another Location

Airport or City:

Trip Planner

Search our weather history database for the weather conditions in past years. The results will help you decide how hot, cold, wet, or windy it might be!

Date:

Astronomy

Feb. 15, 2014 Rise Set
Actual Time 6:55 AM CST 5:30 PM CST
Civil Twilight 6:26 AM CST 5:59 PM CST
Nautical Twilight 5:53 AM CST 6:32 PM CST
Astronomical Twilight 5:20 AM CST 7:05 PM CST
Moon 6:32 PM CST (2/15) 6:52 AM CST (2/15)
Length of Visible Light 11h 33m
Length of Day
10h 35m
Waxing Gibbous, 99% of the Moon is Illuminated
Feb 15
Waxing Gibbous
Feb 22
Last Quarter
Mar 1
New
Mar 8
First Quarter
Mar 16
Full

Hourly Weather History & Observations

Time (CST) Temp. Windchill Dew Point Humidity Pressure Visibility Wind Dir Wind Speed Gust Speed Precip Events Conditions
12:20 AM 8.8 °F -5.3 °F 0.7 °F 70% 29.95 in 10.0 mi NW 10.4 mph - N/A   Clear
12:35 AM 9.0 °F -4.2 °F 0.7 °F 69% 29.96 in 10.0 mi NW 9.2 mph - N/A   Clear
12:55 AM 8.6 °F -5.5 °F 0.5 °F 70% 29.97 in 10.0 mi NW 10.4 mph - N/A   Clear
1:15 AM 7.7 °F -7.4 °F 0.3 °F 72% 29.96 in 10.0 mi NW 11.5 mph - N/A   Clear
1:35 AM 7.5 °F -7.7 °F 0.1 °F 72% 29.98 in 10.0 mi WNW 11.5 mph - N/A   Clear
1:55 AM 6.8 °F -7.8 °F -0.4 °F 72% 29.98 in 10.0 mi NW 10.4 mph - N/A   Clear
2:15 AM 6.3 °F -8.4 °F -0.8 °F 73% 29.99 in 10.0 mi WNW 10.4 mph - N/A   Clear
2:35 AM 5.9 °F -8.9 °F -1.3 °F 72% 29.98 in 10.0 mi WNW 10.4 mph - N/A   Clear
2:55 AM 5.0 °F -10.8 °F -1.5 °F 75% 29.98 in 10.0 mi WNW 11.5 mph - N/A   Clear
3:15 AM 5.2 °F -9.8 °F -1.7 °F 73% 29.98 in 10.0 mi WNW 10.4 mph - N/A   Clear
3:35 AM 5.0 °F -9.1 °F -1.8 °F 73% 29.98 in 10.0 mi WNW 9.2 mph - N/A   Clear
3:55 AM 4.8 °F -9.3 °F -2.2 °F 73% 29.98 in 10.0 mi WNW 9.2 mph - N/A   Clear
4:15 AM 4.1 °F -10.2 °F -2.2 °F 75% 29.98 in 10.0 mi WNW 9.2 mph - N/A   Clear
4:35 AM 3.9 °F -9.4 °F -2.2 °F 76% 29.98 in 10.0 mi NW 8.1 mph - N/A   Clear
4:55 AM 4.1 °F -8.0 °F -2.2 °F 75% 29.99 in 10.0 mi NW 6.9 mph - N/A   Clear
5:20 AM 4.6 °F -4.5 °F -1.8 °F 75% 29.99 in 10.0 mi NNW 4.6 mph - N/A   Clear
5:35 AM 3.0 °F -6.4 °F -3.1 °F 76% 29.98 in 10.0 mi North 4.6 mph - N/A   Clear
5:55 AM 4.8 °F -2.3 °F -1.7 °F 75% 29.99 in 10.0 mi NNW 3.5 mph - N/A   Clear
6:15 AM 5.4 °F -1.7 °F -1.5 °F 73% 29.99 in 10.0 mi NNW 3.5 mph - N/A   Clear
6:35 AM 5.0 °F -2.1 °F -1.8 °F 73% 29.98 in 10.0 mi North 3.5 mph - N/A   Clear
6:55 AM 4.8 °F - -1.5 °F 75% 29.99 in 10.0 mi Calm Calm - N/A   Clear
7:15 AM 5.9 °F - -1.3 °F 72% 30.00 in 10.0 mi Calm Calm - N/A   Clear
7:35 AM 5.0 °F - -2.4 °F 72% 30.01 in 10.0 mi Calm Calm - N/A   Clear
7:55 AM 6.6 °F -0.3 °F -1.3 °F 70% 30.02 in 10.0 mi West 3.5 mph - N/A   Clear
8:15 AM 5.0 °F -2.1 °F -1.8 °F 73% 30.02 in 10.0 mi SW 3.5 mph - N/A   Clear
8:35 AM 6.1 °F -0.9 °F -0.8 °F 73% 30.02 in 10.0 mi South 3.5 mph - N/A   Clear
8:55 AM 7.0 °F -1.7 °F -1.5 °F 68% 30.01 in 10.0 mi SSE 4.6 mph - N/A   Clear
9:15 AM 7.5 °F 0.8 °F -1.3 °F 67% 30.02 in 10.0 mi South 3.5 mph - N/A   Clear
9:35 AM 7.9 °F 1.2 °F -0.4 °F 69% 30.03 in 10.0 mi SSE 3.5 mph - N/A   Clear
9:55 AM 11.5 °F 3.5 °F 1.6 °F 64% 30.02 in 10.0 mi SE 4.6 mph - N/A   Clear
10:15 AM 12.2 °F 1.7 °F 1.9 °F 64% 30.02 in 10.0 mi SE 6.9 mph - N/A   Clear
10:35 AM 12.2 °F 1.7 °F 2.1 °F 64% 30.03 in 10.0 mi SSE 6.9 mph - N/A   Clear
10:55 AM 13.1 °F 1.8 °F 2.8 °F 64% 30.02 in 10.0 mi SSE 8.1 mph - N/A   Clear
11:15 AM 12.7 °F 1.4 °F 3.2 °F 66% 30.00 in 10.0 mi SSE 8.1 mph - N/A   Clear
11:35 AM 14.9 °F 4.0 °F 5.0 °F 65% 30.00 in 10.0 mi SSE 8.1 mph - N/A   Clear
11:55 AM 14.4 °F 3.3 °F 4.8 °F 66% 30.00 in 10.0 mi SSE 8.1 mph - N/A   Clear
12:15 PM 13.6 °F 2.5 °F 3.2 °F 63% 29.99 in 10.0 mi South 8.1 mph - N/A   Clear
12:40 PM 14.5 °F 3.6 °F 4.5 °F 64% 29.98 in 10.0 mi SSW 8.1 mph - N/A   Clear
1:00 PM 14.9 °F 2.3 °F 4.3 °F 63% 29.96 in 10.0 mi South 10.4 mph - N/A   Clear
1:15 PM 15.3 °F 4.4 °F 4.8 °F 63% 29.95 in 10.0 mi South 8.1 mph - N/A   Clear
1:35 PM 15.8 °F 4.2 °F 5.5 °F 64% 29.95 in 10.0 mi South 9.2 mph - N/A   Clear
1:55 PM 15.8 °F 3.4 °F 6.1 °F 66% 29.94 in 10.0 mi South 10.4 mph - N/A   Clear
2:15 PM 16.5 °F 3.0 °F 6.3 °F 64% 29.93 in 10.0 mi SSW 12.7 mph 17.3 mph N/A   Scattered Clouds
2:35 PM 16.5 °F 1.8 °F 6.6 °F 65% 29.93 in 10.0 mi South 15.0 mph - N/A   Scattered Clouds
2:55 PM 16.3 °F 1.6 °F 5.7 °F 63% 29.92 in 10.0 mi South 15.0 mph 19.6 mph N/A   Clear
3:15 PM 16.3 °F 4.9 °F 6.3 °F 65% 29.93 in 10.0 mi South 9.2 mph - N/A   Clear
3:35 PM 15.8 °F 2.1 °F 5.9 °F 65% 29.93 in 10.0 mi South 12.7 mph - N/A   Clear
3:55 PM 15.6 °F 1.2 °F 6.1 °F 66% 29.92 in 10.0 mi South 13.8 mph - N/A   Clear
4:15 PM 15.6 °F 4.9 °F 6.3 °F 67% 29.92 in 10.0 mi South 8.1 mph - N/A   Clear
4:35 PM 15.6 °F 4.0 °F 6.8 °F 68% 29.92 in 10.0 mi South 9.2 mph - N/A   Mostly Cloudy
4:55 PM 15.6 °F 7.0 °F 7.2 °F 69% 29.93 in 10.0 mi SSW 5.8 mph - N/A   Overcast
5:15 PM 15.3 °F 5.4 °F 8.6 °F 75% 29.92 in 2.0 mi South 6.9 mph - N/A Snow Light Snow
5:35 PM 14.5 °F 5.7 °F 14.2 °F 98% 29.91 in 1.5 mi SSE 5.8 mph - N/A Snow Light Snow
5:55 PM 14.4 °F 5.5 °F 14.4 °F 100% 29.91 in 2.0 mi SSE 5.8 mph - N/A Snow Light Snow
6:15 PM 14.4 °F 3.3 °F 14.4 °F 100% 29.90 in 5.0 mi SSE 8.1 mph - N/A Snow Light Snow
6:35 PM 14.4 °F 4.3 °F 14.4 °F 100% 29.91 in 5.0 mi South 6.9 mph - N/A Snow Light Snow
6:55 PM 14.5 °F 4.6 °F 14.5 °F 100% 29.91 in 4.0 mi SSE 6.9 mph - N/A Snow Light Snow
7:15 PM 14.4 °F 4.3 °F 14.4 °F 100% 29.91 in 3.0 mi SE 6.9 mph - N/A Snow Light Snow
7:35 PM 14.5 °F 3.6 °F 14.5 °F 100% 29.90 in 5.0 mi SSE 8.1 mph - N/A Snow Light Snow
7:55 PM 14.7 °F 2.1 °F 14.7 °F 100% 29.89 in 5.0 mi SSE 10.4 mph - N/A Snow Light Snow
8:15 PM 14.9 °F 3.1 °F 14.9 °F 100% 29.89 in 10.0 mi SSE 9.2 mph - N/A   Overcast
8:35 PM 15.3 °F 4.4 °F 15.3 °F 100% 29.89 in 10.0 mi SSE 8.1 mph - N/A   Overcast
8:55 PM 15.6 °F 4.0 °F 15.6 °F 100% 29.90 in 10.0 mi South 9.2 mph - N/A   Overcast
9:15 PM 15.6 °F 4.0 °F 15.6 °F 100% 29.90 in 10.0 mi South 9.2 mph - N/A   Overcast
9:35 PM 15.8 °F 4.2 °F 15.8 °F 100% 29.90 in 10.0 mi South 9.2 mph - N/A   Overcast
9:55 PM 15.8 °F 6.1 °F 15.8 °F 100% 29.90 in 7.0 mi SSW 6.9 mph - N/A   Overcast
10:15 PM 15.8 °F 7.2 °F 15.8 °F 100% 29.90 in 7.0 mi SSW 5.8 mph - N/A   Overcast
10:35 PM 16.2 °F 5.5 °F 16.2 °F 100% 29.90 in 7.0 mi SSW 8.1 mph - N/A   Overcast
10:55 PM 16.3 °F 5.7 °F 16.3 °F 100% 29.90 in 7.0 mi SW 8.1 mph - N/A   Overcast
11:15 PM 16.3 °F 4.9 °F 16.3 °F 100% 29.91 in 10.0 mi SW 9.2 mph - N/A   Overcast
11:35 PM 16.3 °F 4.9 °F 16.3 °F 100% 29.90 in 7.0 mi WSW 9.2 mph - N/A   Overcast
11:55 PM 16.3 °F 6.7 °F 16.3 °F 100% 29.91 in 10.0 mi WSW 6.9 mph - N/A   Overcast